Terminal Aerodrome Forecast
Issued by NWS Norman, OK

Home | Current Version | Previous Version | Text Only | Print | Product List | Glossary On
Versions: 1 2 3 4 5 6 7 8 9 10 11 12 13 14 15 16 17 18 19 20 21 22 23 24 25
000
FTUS44 KOUN 240521
TAFOKC
TAF
KOKC 240521Z 2406/2506 16010KT 5SM RA BR SCT006 OVC040
      TEMPO 2406/2408 2SM +RA BR BKN006
     FM241200 16010KT P6SM VCSH BKN006
     FM242000 18012KT 6SM BR SCT015 BKN030
     FM250100 16011KT P6SM BKN030=

USA.gov is the U.S. government's official web portal to all federal, state and local government web resources and services.